sensor_id;sensor_type;location;lat;lon;timestamp;temperature;humidity
8994;DHT22;4532;50.886;4.700;2023-08-08T00:01:51;16.70;99.90
8994;DHT22;4532;50.886;4.700;2023-08-08T00:04:20;16.70;99.90
8994;DHT22;4532;50.886;4.700;2023-08-08T00:06:47;16.70;99.90
8994;DHT22;4532;50.886;4.700;2023-08-08T00:09:15;16.60;99.90
8994;DHT22;4532;50.886;4.700;2023-08-08T00:11:44;16.60;99.90
8994;DHT22;4532;50.886;4.700;2023-08-08T00:14:11;16.60;99.90
8994;DHT22;4532;50.886;4.700;2023-08-08T00:16:39;16.60;99.90
8994;DHT22;4532;50.886;4.700;2023-08-08T00:19:06;16.60;99.90
8994;DHT22;4532;50.886;4.700;2023-08-08T00:21:33;16.60;99.90
8994;DHT22;4532;50.886;4.700;2023-08-08T00:24:00;16.60;99.90
8994;DHT22;4532;50.886;4.700;2023-08-08T00:26:28;16.60;99.90
8994;DHT22;4532;50.886;4.700;2023-08-08T00:28:55;16.60;99.90
8994;DHT22;4532;50.886;4.700;2023-08-08T00:31:22;16.50;99.90
8994;DHT22;4532;50.886;4.700;2023-08-08T00:33:52;16.50;99.90
8994;DHT22;4532;50.886;4.700;2023-08-08T00:36:22;16.50;99.90
8994;DHT22;4532;50.886;4.700;2023-08-08T00:38:51;16.50;99.90
8994;DHT22;4532;50.886;4.700;2023-08-08T00:41:20;16.50;99.90
8994;DHT22;4532;50.886;4.700;2023-08-08T00:43:53;16.50;99.90
8994;DHT22;4532;50.886;4.700;2023-08-08T00:46:21;16.50;99.90
8994;DHT22;4532;50.886;4.700;2023-08-08T00:48:50;16.50;99.90
8994;DHT22;4532;50.886;4.700;2023-08-08T00:51:20;16.50;99.90
8994;DHT22;4532;50.886;4.700;2023-08-08T00:53:49;16.50;99.90
8994;DHT22;4532;50.886;4.700;2023-08-08T00:56:17;16.50;99.90
8994;DHT22;4532;50.886;4.700;2023-08-08T00:58:49;16.50;99.90
8994;DHT22;4532;50.886;4.700;2023-08-08T01:01:18;16.50;99.90
8994;DHT22;4532;50.886;4.700;2023-08-08T01:03:46;16.50;99.90
8994;DHT22;4532;50.886;4.700;2023-08-08T01:09:30;16.50;99.90
8994;DHT22;4532;50.886;4.700;2023-08-08T01:12:07;16.50;99.90
8994;DHT22;4532;50.886;4.700;2023-08-08T01:14:44;16.40;99.90
8994;DHT22;4532;50.886;4.700;2023-08-08T01:17:15;16.40;99.90
8994;DHT22;4532;50.886;4.700;2023-08-08T01:19:48;16.40;99.90
8994;DHT22;4532;50.886;4.700;2023-08-08T01:22:30;16.40;99.90
8994;DHT22;4532;50.886;4.700;2023-08-08T01:25:02;16.40;99.90
8994;DHT22;4532;50.886;4.700;2023-08-08T01:27:30;16.40;99.90
8994;DHT22;4532;50.886;4.700;2023-08-08T01:29:59;16.40;99.90
8994;DHT22;4532;50.886;4.700;2023-08-08T01:32:29;16.40;99.90
8994;DHT22;4532;50.886;4.700;2023-08-08T01:34:59;16.40;99.90
8994;DHT22;4532;50.886;4.700;2023-08-08T01:37:34;16.40;99.90
8994;DHT22;4532;50.886;4.700;2023-08-08T01:40:04;16.40;99.90
8994;DHT22;4532;50.886;4.700;2023-08-08T01:42:35;16.40;99.90
8994;DHT22;4532;50.886;4.700;2023-08-08T01:45:04;16.40;99.90
8994;DHT22;4532;50.886;4.700;2023-08-08T01:47:41;16.40;99.90
8994;DHT22;4532;50.886;4.700;2023-08-08T01:50:13;16.40;99.90
8994;DHT22;4532;50.886;4.700;2023-08-08T01:52:40;16.40;99.90
8994;DHT22;4532;50.886;4.700;2023-08-08T01:55:08;16.50;99.90
8994;DHT22;4532;50.886;4.700;2023-08-08T01:57:35;16.50;99.90
8994;DHT22;4532;50.886;4.700;2023-08-08T02:00:06;16.40;99.90
8994;DHT22;4532;50.886;4.700;2023-08-08T02:02:33;16.50;99.90
8994;DHT22;4532;50.886;4.700;2023-08-08T02:05:05;16.50;99.90
8994;DHT22;4532;50.886;4.700;2023-08-08T02:07:33;16.50;99.90
8994;DHT22;4532;50.886;4.700;2023-08-08T02:10:00;16.50;99.90
8994;DHT22;4532;50.886;4.700;2023-08-08T02:12:27;16.50;99.90
8994;DHT22;4532;50.886;4.700;2023-08-08T02:15:00;16.50;99.90
8994;DHT22;4532;50.886;4.700;2023-08-08T02:17:29;16.50;99.90
8994;DHT22;4532;50.886;4.700;2023-08-08T02:19:56;16.50;99.90
8994;DHT22;4532;50.886;4.700;2023-08-08T02:22:25;16.50;99.90
8994;DHT22;4532;50.886;4.700;2023-08-08T02:24:52;16.50;99.90
8994;DHT22;4532;50.886;4.700;2023-08-08T02:27:19;16.50;99.90
8994;DHT22;4532;50.886;4.700;2023-08-08T02:29:47;16.50;99.90
8994;DHT22;4532;50.886;4.700;2023-08-08T02:32:14;16.50;99.90
8994;DHT22;4532;50.886;4.700;2023-08-08T02:34:44;16.60;99.90
8994;DHT22;4532;50.886;4.700;2023-08-08T02:37:11;16.60;99.90
8994;DHT22;4532;50.886;4.700;2023-08-08T02:39:38;16.60;99.90
8994;DHT22;4532;50.886;4.700;2023-08-08T02:42:06;16.60;99.90
8994;DHT22;4532;50.886;4.700;2023-08-08T02:44:35;16.60;99.90
8994;DHT22;4532;50.886;4.700;2023-08-08T02:47:05;16.60;99.90
8994;DHT22;4532;50.886;4.700;2023-08-08T02:49:35;16.60;99.90
8994;DHT22;4532;50.886;4.700;2023-08-08T02:52:05;16.60;99.90
8994;DHT22;4532;50.886;4.700;2023-08-08T02:54:32;16.60;99.90
8994;DHT22;4532;50.886;4.700;2023-08-08T02:57:00;16.60;99.90
8994;DHT22;4532;50.886;4.700;2023-08-08T02:59:27;16.60;99.90
8994;DHT22;4532;50.886;4.700;2023-08-08T03:01:54;16.60;99.90
8994;DHT22;4532;50.886;4.700;2023-08-08T03:04:22;16.60;99.90
8994;DHT22;4532;50.886;4.700;2023-08-08T03:06:55;16.60;99.90
8994;DHT22;4532;50.886;4.700;2023-08-08T03:09:27;16.60;99.90
8994;DHT22;4532;50.886;4.700;2023-08-08T03:11:54;16.60;99.90
8994;DHT22;4532;50.886;4.700;2023-08-08T03:14:22;16.60;99.90
8994;DHT22;4532;50.886;4.700;2023-08-08T03:16:53;16.60;99.90
8994;DHT22;4532;50.886;4.700;2023-08-08T03:19:21;16.60;99.90
8994;DHT22;4532;50.886;4.700;2023-08-08T03:21:48;16.60;99.90
8994;DHT22;4532;50.886;4.700;2023-08-08T03:24:18;16.60;99.90
8994;DHT22;4532;50.886;4.700;2023-08-08T03:26:45;16.60;99.90
8994;DHT22;4532;50.886;4.700;2023-08-08T03:29:12;16.60;99.90
8994;DHT22;4532;50.886;4.700;2023-08-08T03:31:39;16.60;99.90
8994;DHT22;4532;50.886;4.700;2023-08-08T03:34:07;16.50;99.90
8994;DHT22;4532;50.886;4.700;2023-08-08T03:36:34;16.50;99.90
8994;DHT22;4532;50.886;4.700;2023-08-08T03:39:01;16.50;99.90
8994;DHT22;4532;50.886;4.700;2023-08-08T03:41:37;16.50;99.90
8994;DHT22;4532;50.886;4.700;2023-08-08T03:44:10;16.50;99.90
8994;DHT22;4532;50.886;4.700;2023-08-08T03:46:40;16.50;99.90
8994;DHT22;4532;50.886;4.700;2023-08-08T03:49:07;16.50;99.90
8994;DHT22;4532;50.886;4.700;2023-08-08T03:51:39;16.50;99.90
8994;DHT22;4532;50.886;4.700;2023-08-08T03:54:07;16.40;99.90
8994;DHT22;4532;50.886;4.700;2023-08-08T03:56:36;16.40;99.90
8994;DHT22;4532;50.886;4.700;2023-08-08T03:59:06;16.40;99.90
8994;DHT22;4532;50.886;4.700;2023-08-08T04:01:38;16.40;99.90
8994;DHT22;4532;50.886;4.700;2023-08-08T04:04:06;16.40;99.90
8994;DHT22;4532;50.886;4.700;2023-08-08T04:06:33;16.40;99.90
8994;DHT22;4532;50.886;4.700;2023-08-08T04:09:00;16.40;99.90
8994;DHT22;4532;50.886;4.700;2023-08-08T04:11:30;16.40;99.90
8994;DHT22;4532;50.886;4.700;2023-08-08T04:14:04;16.30;99.90
8994;DHT22;4532;50.886;4.700;2023-08-08T04:16:33;16.30;99.90
8994;DHT22;4532;50.886;4.700;2023-08-08T04:19:01;16.30;99.90
8994;DHT22;4532;50.886;4.700;2023-08-08T04:21:33;16.30;99.90
8994;DHT22;4532;50.886;4.700;2023-08-08T04:24:02;16.30;99.90
8994;DHT22;4532;50.886;4.700;2023-08-08T04:26:29;16.30;99.90
8994;DHT22;4532;50.886;4.700;2023-08-08T04:29:07;16.30;99.90
8994;DHT22;4532;50.886;4.700;2023-08-08T04:31:37;16.30;99.90
8994;DHT22;4532;50.886;4.700;2023-08-08T04:34:07;16.30;99.90
8994;DHT22;4532;50.886;4.700;2023-08-08T04:36:34;16.20;99.90
8994;DHT22;4532;50.886;4.700;2023-08-08T04:39:01;16.30;99.90
8994;DHT22;4532;50.886;4.700;2023-08-08T04:41:31;16.20;99.90
8994;DHT22;4532;50.886;4.700;2023-08-08T04:43:58;16.30;99.90
8994;DHT22;4532;50.886;4.700;2023-08-08T04:46:28;16.30;99.90
8994;DHT22;4532;50.886;4.700;2023-08-08T04:48:56;16.30;99.90
8994;DHT22;4532;50.886;4.700;2023-08-08T04:51:24;16.30;99.90
8994;DHT22;4532;50.886;4.700;2023-08-08T04:53:51;16.30;99.90
8994;DHT22;4532;50.886;4.700;2023-08-08T04:56:18;16.30;99.90
8994;DHT22;4532;50.886;4.700;2023-08-08T04:58:46;16.30;99.90
8994;DHT22;4532;50.886;4.700;2023-08-08T05:01:13;16.30;99.90
8994;DHT22;4532;50.886;4.700;2023-08-08T05:03:42;16.30;99.90
8994;DHT22;4532;50.886;4.700;2023-08-08T05:06:09;16.30;99.90
8994;DHT22;4532;50.886;4.700;2023-08-08T05:08:37;16.30;99.90
8994;DHT22;4532;50.886;4.700;2023-08-08T05:11:05;16.40;99.90
8994;DHT22;4532;50.886;4.700;2023-08-08T05:13:32;16.40;99.90
8994;DHT22;4532;50.886;4.700;2023-08-08T05:16:00;16.40;99.90
8994;DHT22;4532;50.886;4.700;2023-08-08T05:18:27;16.40;99.90
8994;DHT22;4532;50.886;4.700;2023-08-08T05:20:54;16.40;99.90
8994;DHT22;4532;50.886;4.700;2023-08-08T05:23:29;16.50;99.90
8994;DHT22;4532;50.886;4.700;2023-08-08T05:25:56;16.50;99.90
8994;DHT22;4532;50.886;4.700;2023-08-08T05:28:23;16.50;99.90
8994;DHT22;4532;50.886;4.700;2023-08-08T05:30:53;16.60;99.90
8994;DHT22;4532;50.886;4.700;2023-08-08T05:33:21;16.60;99.90
8994;DHT22;4532;50.886;4.700;2023-08-08T05:35:48;16.60;99.90
8994;DHT22;4532;50.886;4.700;2023-08-08T05:38:15;16.60;99.90
8994;DHT22;4532;50.886;4.700;2023-08-08T05:40:43;16.70;99.90
8994;DHT22;4532;50.886;4.700;2023-08-08T05:43:10;16.70;99.90
8994;DHT22;4532;50.886;4.700;2023-08-08T05:45:37;16.70;99.90
8994;DHT22;4532;50.886;4.700;2023-08-08T05:48:04;16.70;99.90
8994;DHT22;4532;50.886;4.700;2023-08-08T05:50:32;16.80;99.90
8994;DHT22;4532;50.886;4.700;2023-08-08T05:53:00;16.80;99.90
8994;DHT22;4532;50.886;4.700;2023-08-08T05:55:27;16.80;99.90
8994;DHT22;4532;50.886;4.700;2023-08-08T05:57:56;16.80;99.90
8994;DHT22;4532;50.886;4.700;2023-08-08T06:00:24;16.90;99.90
8994;DHT22;4532;50.886;4.700;2023-08-08T06:02:51;16.90;99.90
8994;DHT22;4532;50.886;4.700;2023-08-08T06:05:22;16.90;99.90
8994;DHT22;4532;50.886;4.700;2023-08-08T06:07:51;17.00;99.90
8994;DHT22;4532;50.886;4.700;2023-08-08T06:10:21;17.00;99.90
8994;DHT22;4532;50.886;4.700;2023-08-08T06:12:54;17.10;99.90
8994;DHT22;4532;50.886;4.700;2023-08-08T06:15:21;17.20;99.90
8994;DHT22;4532;50.886;4.700;2023-08-08T06:17:51;17.20;99.90
8994;DHT22;4532;50.886;4.700;2023-08-08T06:20:20;17.30;99.90
8994;DHT22;4532;50.886;4.700;2023-08-08T06:22:48;17.30;99.90
8994;DHT22;4532;50.886;4.700;2023-08-08T06:25:16;17.30;99.90
8994;DHT22;4532;50.886;4.700;2023-08-08T06:27:46;17.40;99.90
8994;DHT22;4532;50.886;4.700;2023-08-08T06:30:20;17.40;99.90
8994;DHT22;4532;50.886;4.700;2023-08-08T06:32:52;17.40;99.90
8994;DHT22;4532;50.886;4.700;2023-08-08T06:35:22;17.40;99.90
8994;DHT22;4532;50.886;4.700;2023-08-08T06:37:49;17.50;99.90
8994;DHT22;4532;50.886;4.700;2023-08-08T06:40:19;17.50;99.90
8994;DHT22;4532;50.886;4.700;2023-08-08T06:42:48;17.50;99.90
8994;DHT22;4532;50.886;4.700;2023-08-08T06:45:15;17.60;99.90
8994;DHT22;4532;50.886;4.700;2023-08-08T06:47:42;17.60;99.90
8994;DHT22;4532;50.886;4.700;2023-08-08T06:50:14;17.60;99.90
8994;DHT22;4532;50.886;4.700;2023-08-08T06:52:44;17.60;99.90
8994;DHT22;4532;50.886;4.700;2023-08-08T06:55:11;17.70;99.90
8994;DHT22;4532;50.886;4.700;2023-08-08T06:57:38;17.70;99.90
8994;DHT22;4532;50.886;4.700;2023-08-08T07:00:06;17.80;99.90
8994;DHT22;4532;50.886;4.700;2023-08-08T07:02:35;17.80;99.90
8994;DHT22;4532;50.886;4.700;2023-08-08T07:05:03;17.90;99.90
8994;DHT22;4532;50.886;4.700;2023-08-08T07:07:30;18.00;99.90
8994;DHT22;4532;50.886;4.700;2023-08-08T07:10:00;18.00;99.90
8994;DHT22;4532;50.886;4.700;2023-08-08T07:12:30;18.00;99.90
8994;DHT22;4532;50.886;4.700;2023-08-08T07:14:59;18.10;99.90
8994;DHT22;4532;50.886;4.700;2023-08-08T07:17:27;18.20;99.90
8994;DHT22;4532;50.886;4.700;2023-08-08T07:19:54;18.20;99.90
8994;DHT22;4532;50.886;4.700;2023-08-08T07:22:22;18.40;99.90
8994;DHT22;4532;50.886;4.700;2023-08-08T07:24:52;18.40;99.90
8994;DHT22;4532;50.886;4.700;2023-08-08T07:27:19;18.50;99.90
8994;DHT22;4532;50.886;4.700;2023-08-08T07:29:47;18.50;99.90
8994;DHT22;4532;50.886;4.700;2023-08-08T07:32:16;18.60;99.90
8994;DHT22;4532;50.886;4.700;2023-08-08T07:34:44;18.60;99.90
8994;DHT22;4532;50.886;4.700;2023-08-08T07:37:16;18.70;99.90
8994;DHT22;4532;50.886;4.700;2023-08-08T07:39:44;18.80;99.90
8994;DHT22;4532;50.886;4.700;2023-08-08T07:42:11;18.80;99.90
8994;DHT22;4532;50.886;4.700;2023-08-08T07:44:38;18.80;99.90
8994;DHT22;4532;50.886;4.700;2023-08-08T07:47:07;18.80;99.90
8994;DHT22;4532;50.886;4.700;2023-08-08T07:49:39;18.90;99.90
8994;DHT22;4532;50.886;4.700;2023-08-08T07:52:14;19.00;99.90
8994;DHT22;4532;50.886;4.700;2023-08-08T07:54:41;19.00;99.90
8994;DHT22;4532;50.886;4.700;2023-08-08T07:57:11;19.00;99.90
8994;DHT22;4532;50.886;4.700;2023-08-08T07:59:46;19.10;99.90
8994;DHT22;4532;50.886;4.700;2023-08-08T08:02:18;19.10;99.90
8994;DHT22;4532;50.886;4.700;2023-08-08T08:04:46;19.10;99.90
8994;DHT22;4532;50.886;4.700;2023-08-08T08:07:13;19.10;99.90
8994;DHT22;4532;50.886;4.700;2023-08-08T08:09:43;19.10;99.90
8994;DHT22;4532;50.886;4.700;2023-08-08T08:12:10;19.10;99.90
8994;DHT22;4532;50.886;4.700;2023-08-08T08:14:37;19.20;99.90
8994;DHT22;4532;50.886;4.700;2023-08-08T08:17:04;19.20;99.90
8994;DHT22;4532;50.886;4.700;2023-08-08T08:19:32;19.30;99.90
8994;DHT22;4532;50.886;4.700;2023-08-08T08:21:59;19.40;99.90
8994;DHT22;4532;50.886;4.700;2023-08-08T08:24:26;19.40;99.90
8994;DHT22;4532;50.886;4.700;2023-08-08T08:26:56;19.40;99.90
8994;DHT22;4532;50.886;4.700;2023-08-08T08:29:26;19.40;99.90
8994;DHT22;4532;50.886;4.700;2023-08-08T08:31:53;19.50;99.90
8994;DHT22;4532;50.886;4.700;2023-08-08T08:34:20;19.50;99.90
8994;DHT22;4532;50.886;4.700;2023-08-08T08:36:47;19.50;99.90
8994;DHT22;4532;50.886;4.700;2023-08-08T08:39:14;19.60;99.90
8994;DHT22;4532;50.886;4.700;2023-08-08T08:41:57;19.50;99.90
8994;DHT22;4532;50.886;4.700;2023-08-08T08:44:26;19.60;99.90
8994;DHT22;4532;50.886;4.700;2023-08-08T08:46:59;19.60;99.90
8994;DHT22;4532;50.886;4.700;2023-08-08T08:49:34;19.60;99.90
8994;DHT22;4532;50.886;4.700;2023-08-08T08:52:03;19.70;99.90
8994;DHT22;4532;50.886;4.700;2023-08-08T08:54:34;19.70;99.90
8994;DHT22;4532;50.886;4.700;2023-08-08T08:57:02;19.70;99.90
8994;DHT22;4532;50.886;4.700;2023-08-08T08:59:34;19.80;99.90
8994;DHT22;4532;50.886;4.700;2023-08-08T09:02:02;19.80;99.90
8994;DHT22;4532;50.886;4.700;2023-08-08T09:04:30;19.80;99.90
8994;DHT22;4532;50.886;4.700;2023-08-08T09:06:59;19.90;99.90
8994;DHT22;4532;50.886;4.700;2023-08-08T09:09:26;19.90;99.90
8994;DHT22;4532;50.886;4.700;2023-08-08T09:11:56;19.90;99.90
8994;DHT22;4532;50.886;4.700;2023-08-08T09:14:32;20.00;99.90
8994;DHT22;4532;50.886;4.700;2023-08-08T09:17:02;20.00;99.90
8994;DHT22;4532;50.886;4.700;2023-08-08T09:19:31;20.00;99.90
8994;DHT22;4532;50.886;4.700;2023-08-08T09:22:01;20.10;99.90
8994;DHT22;4532;50.886;4.700;2023-08-08T09:24:28;20.10;99.90
8994;DHT22;4532;50.886;4.700;2023-08-08T09:26:56;20.10;99.90
8994;DHT22;4532;50.886;4.700;2023-08-08T09:29:23;20.20;99.90
8994;DHT22;4532;50.886;4.700;2023-08-08T09:31:52;20.20;99.90
8994;DHT22;4532;50.886;4.700;2023-08-08T09:34:24;20.30;99.90
8994;DHT22;4532;50.886;4.700;2023-08-08T09:36:55;20.30;99.90
8994;DHT22;4532;50.886;4.700;2023-08-08T09:39:26;20.30;99.90
8994;DHT22;4532;50.886;4.700;2023-08-08T09:42:02;20.30;99.90
8994;DHT22;4532;50.886;4.700;2023-08-08T09:44:32;20.40;99.90
8994;DHT22;4532;50.886;4.700;2023-08-08T09:47:12;20.40;99.90
8994;DHT22;4532;50.886;4.700;2023-08-08T09:49:39;20.40;99.90
8994;DHT22;4532;50.886;4.700;2023-08-08T09:52:07;20.40;99.90
8994;DHT22;4532;50.886;4.700;2023-08-08T09:54:38;20.40;99.90
8994;DHT22;4532;50.886;4.700;2023-08-08T09:57:08;20.50;99.90
8994;DHT22;4532;50.886;4.700;2023-08-08T09:59:38;20.50;99.90
8994;DHT22;4532;50.886;4.700;2023-08-08T10:02:09;20.50;99.90
8994;DHT22;4532;50.886;4.700;2023-08-08T10:04:50;20.60;99.90
8994;DHT22;4532;50.886;4.700;2023-08-08T10:07:23;20.60;99.90
8994;DHT22;4532;50.886;4.700;2023-08-08T10:09:50;20.50;99.90
8994;DHT22;4532;50.886;4.700;2023-08-08T10:12:18;20.50;99.90
8994;DHT22;4532;50.886;4.700;2023-08-08T10:14:48;20.50;99.90
8994;DHT22;4532;50.886;4.700;2023-08-08T10:17:17;20.60;99.90
8994;DHT22;4532;50.886;4.700;2023-08-08T10:19:53;20.50;99.90
8994;DHT22;4532;50.886;4.700;2023-08-08T10:22:22;20.60;99.90
8994;DHT22;4532;50.886;4.700;2023-08-08T10:24:52;20.50;99.90
8994;DHT22;4532;50.886;4.700;2023-08-08T10:27:34;20.50;99.90
8994;DHT22;4532;50.886;4.700;2023-08-08T10:30:07;20.50;99.90
8994;DHT22;4532;50.886;4.700;2023-08-08T10:32:44;20.50;99.90
8994;DHT22;4532;50.886;4.700;2023-08-08T10:35:14;20.60;99.90
8994;DHT22;4532;50.886;4.700;2023-08-08T10:37:52;20.50;99.90
8994;DHT22;4532;50.886;4.700;2023-08-08T10:40:20;20.50;99.90
8994;DHT22;4532;50.886;4.700;2023-08-08T10:42:53;20.50;99.90
8994;DHT22;4532;50.886;4.700;2023-08-08T10:45:28;20.50;99.90
8994;DHT22;4532;50.886;4.700;2023-08-08T10:47:56;20.50;99.90
8994;DHT22;4532;50.886;4.700;2023-08-08T10:50:25;20.50;99.90
8994;DHT22;4532;50.886;4.700;2023-08-08T10:52:56;20.50;99.90
8994;DHT22;4532;50.886;4.700;2023-08-08T10:55:26;20.50;99.90
8994;DHT22;4532;50.886;4.700;2023-08-08T11:00:33;20.60;99.90
8994;DHT22;4532;50.886;4.700;2023-08-08T11:03:06;20.50;99.90
8994;DHT22;4532;50.886;4.700;2023-08-08T11:05:37;20.50;99.90
8994;DHT22;4532;50.886;4.700;2023-08-08T11:08:08;20.60;99.90
8994;DHT22;4532;50.886;4.700;2023-08-08T11:10:36;20.60;99.90
8994;DHT22;4532;50.886;4.700;2023-08-08T11:13:07;20.50;99.90
8994;DHT22;4532;50.886;4.700;2023-08-08T11:15:36;20.50;99.90
8994;DHT22;4532;50.886;4.700;2023-08-08T11:18:04;20.50;99.90
8994;DHT22;4532;50.886;4.700;2023-08-08T11:20:35;20.50;99.90
8994;DHT22;4532;50.886;4.700;2023-08-08T11:23:03;20.40;99.90
8994;DHT22;4532;50.886;4.700;2023-08-08T11:25:43;20.50;99.90
8994;DHT22;4532;50.886;4.700;2023-08-08T11:28:11;20.50;99.90
8994;DHT22;4532;50.886;4.700;2023-08-08T11:30:45;20.40;99.90
8994;DHT22;4532;50.886;4.700;2023-08-08T11:33:14;20.50;99.90
8994;DHT22;4532;50.886;4.700;2023-08-08T11:35:50;20.50;99.90
8994;DHT22;4532;50.886;4.700;2023-08-08T11:38:20;20.50;99.90
8994;DHT22;4532;50.886;4.700;2023-08-08T11:40:47;20.50;99.90
8994;DHT22;4532;50.886;4.700;2023-08-08T11:43:15;20.60;99.90
8994;DHT22;4532;50.886;4.700;2023-08-08T11:45:46;20.70;99.90
8994;DHT22;4532;50.886;4.700;2023-08-08T11:48:16;20.70;99.90
8994;DHT22;4532;50.886;4.700;2023-08-08T11:50:52;20.70;99.90
8994;DHT22;4532;50.886;4.700;2023-08-08T11:53:23;20.80;99.90
8994;DHT22;4532;50.886;4.700;2023-08-08T11:55:50;20.70;99.90
8994;DHT22;4532;50.886;4.700;2023-08-08T11:58:23;20.70;99.90
8994;DHT22;4532;50.886;4.700;2023-08-08T12:00:51;20.90;99.90
8994;DHT22;4532;50.886;4.700;2023-08-08T12:03:19;20.90;99.90
8994;DHT22;4532;50.886;4.700;2023-08-08T12:05:47;20.90;99.90
8994;DHT22;4532;50.886;4.700;2023-08-08T12:08:21;20.90;99.90
8994;DHT22;4532;50.886;4.700;2023-08-08T12:10:51;21.00;99.90
8994;DHT22;4532;50.886;4.700;2023-08-08T12:13:26;21.00;99.90
8994;DHT22;4532;50.886;4.700;2023-08-08T12:15:55;21.00;99.90
8994;DHT22;4532;50.886;4.700;2023-08-08T12:18:22;21.10;99.90
8994;DHT22;4532;50.886;4.700;2023-08-08T12:20:52;21.10;99.90
8994;DHT22;4532;50.886;4.700;2023-08-08T12:23:19;21.10;99.90
8994;DHT22;4532;50.886;4.700;2023-08-08T12:25:46;21.10;99.90
8994;DHT22;4532;50.886;4.700;2023-08-08T12:28:14;21.10;99.90
8994;DHT22;4532;50.886;4.700;2023-08-08T12:30:41;21.00;99.90
8994;DHT22;4532;50.886;4.700;2023-08-08T12:33:08;21.00;99.90
8994;DHT22;4532;50.886;4.700;2023-08-08T12:35:36;21.00;99.90
8994;DHT22;4532;50.886;4.700;2023-08-08T12:38:05;21.00;99.90
8994;DHT22;4532;50.886;4.700;2023-08-08T12:40:35;21.00;99.90
8994;DHT22;4532;50.886;4.700;2023-08-08T12:43:04;21.00;99.90
8994;DHT22;4532;50.886;4.700;2023-08-08T12:45:31;21.10;99.90
8994;DHT22;4532;50.886;4.700;2023-08-08T12:47:59;21.10;99.90
8994;DHT22;4532;50.886;4.700;2023-08-08T12:50:26;21.10;99.90
8994;DHT22;4532;50.886;4.700;2023-08-08T12:52:54;21.10;99.90
8994;DHT22;4532;50.886;4.700;2023-08-08T12:55:23;21.20;99.90
8994;DHT22;4532;50.886;4.700;2023-08-08T12:57:53;21.20;99.90
8994;DHT22;4532;50.886;4.700;2023-08-08T13:00:21;21.20;99.90
8994;DHT22;4532;50.886;4.700;2023-08-08T13:02:51;21.20;99.90
8994;DHT22;4532;50.886;4.700;2023-08-08T13:05:21;21.20;99.90
8994;DHT22;4532;50.886;4.700;2023-08-08T13:07:53;21.20;99.90
8994;DHT22;4532;50.886;4.700;2023-08-08T13:10:24;21.30;99.90
8994;DHT22;4532;50.886;4.700;2023-08-08T13:12:54;21.40;99.90
8994;DHT22;4532;50.886;4.700;2023-08-08T13:15:22;21.40;99.90
8994;DHT22;4532;50.886;4.700;2023-08-08T13:17:52;21.40;99.90
8994;DHT22;4532;50.886;4.700;2023-08-08T13:20:19;21.50;99.90
8994;DHT22;4532;50.886;4.700;2023-08-08T13:22:49;21.50;99.90
8994;DHT22;4532;50.886;4.700;2023-08-08T13:25:16;21.40;99.90
8994;DHT22;4532;50.886;4.700;2023-08-08T13:27:46;21.50;99.90
8994;DHT22;4532;50.886;4.700;2023-08-08T13:30:15;21.50;99.90
8994;DHT22;4532;50.886;4.700;2023-08-08T13:32:50;21.60;99.90
8994;DHT22;4532;50.886;4.700;2023-08-08T13:35:17;21.60;99.90
8994;DHT22;4532;50.886;4.700;2023-08-08T13:37:46;21.60;99.90
8994;DHT22;4532;50.886;4.700;2023-08-08T13:40:18;21.60;99.90
8994;DHT22;4532;50.886;4.700;2023-08-08T13:42:52;21.60;99.90
8994;DHT22;4532;50.886;4.700;2023-08-08T13:45:22;21.60;99.90
8994;DHT22;4532;50.886;4.700;2023-08-08T13:47:50;21.70;99.90
8994;DHT22;4532;50.886;4.700;2023-08-08T13:50:20;21.70;99.90
8994;DHT22;4532;50.886;4.700;2023-08-08T13:52:49;21.80;99.90
8994;DHT22;4532;50.886;4.700;2023-08-08T13:55:17;21.80;99.90
8994;DHT22;4532;50.886;4.700;2023-08-08T13:57:44;21.80;99.90
8994;DHT22;4532;50.886;4.700;2023-08-08T14:00:12;21.90;99.90
8994;DHT22;4532;50.886;4.700;2023-08-08T14:02:40;21.90;99.90
8994;DHT22;4532;50.886;4.700;2023-08-08T14:05:10;22.00;99.90
8994;DHT22;4532;50.886;4.700;2023-08-08T14:07:40;22.00;99.90
8994;DHT22;4532;50.886;4.700;2023-08-08T14:10:10;22.10;99.90
8994;DHT22;4532;50.886;4.700;2023-08-08T14:12:37;22.20;99.90
8994;DHT22;4532;50.886;4.700;2023-08-08T14:15:07;22.20;99.90
8994;DHT22;4532;50.886;4.700;2023-08-08T14:17:37;22.20;99.90
8994;DHT22;4532;50.886;4.700;2023-08-08T14:20:07;22.20;99.90
8994;DHT22;4532;50.886;4.700;2023-08-08T14:22:40;22.20;99.90
8994;DHT22;4532;50.886;4.700;2023-08-08T14:25:11;22.30;99.90
8994;DHT22;4532;50.886;4.700;2023-08-08T14:27:49;22.30;99.90
8994;DHT22;4532;50.886;4.700;2023-08-08T14:30:22;22.30;99.90
8994;DHT22;4532;50.886;4.700;2023-08-08T14:32:57;22.30;99.90
8994;DHT22;4532;50.886;4.700;2023-08-08T14:35:27;22.30;99.90
8994;DHT22;4532;50.886;4.700;2023-08-08T14:37:55;22.30;99.90
8994;DHT22;4532;50.886;4.700;2023-08-08T14:40:22;22.30;99.90
8994;DHT22;4532;50.886;4.700;2023-08-08T14:42:49;22.30;99.90
8994;DHT22;4532;50.886;4.700;2023-08-08T14:45:22;22.30;99.90
8994;DHT22;4532;50.886;4.700;2023-08-08T14:47:50;22.30;99.90
8994;DHT22;4532;50.886;4.700;2023-08-08T14:50:18;22.30;99.90
8994;DHT22;4532;50.886;4.700;2023-08-08T14:52:45;22.30;99.90
8994;DHT22;4532;50.886;4.700;2023-08-08T14:55:15;22.30;99.90
8994;DHT22;4532;50.886;4.700;2023-08-08T14:57:42;22.30;99.90
8994;DHT22;4532;50.886;4.700;2023-08-08T15:00:12;22.30;99.90
8994;DHT22;4532;50.886;4.700;2023-08-08T15:02:42;22.30;99.90
8994;DHT22;4532;50.886;4.700;2023-08-08T15:05:12;22.20;99.90
8994;DHT22;4532;50.886;4.700;2023-08-08T15:07:42;22.20;99.90
8994;DHT22;4532;50.886;4.700;2023-08-08T15:10:10;22.10;99.90
8994;DHT22;4532;50.886;4.700;2023-08-08T15:12:44;22.20;99.90
8994;DHT22;4532;50.886;4.700;2023-08-08T15:15:15;22.10;99.90
8994;DHT22;4532;50.886;4.700;2023-08-08T15:17:44;22.10;99.90
8994;DHT22;4532;50.886;4.700;2023-08-08T15:20:14;22.10;99.90
8994;DHT22;4532;50.886;4.700;2023-08-08T15:22:44;22.00;99.90
8994;DHT22;4532;50.886;4.700;2023-08-08T15:25:11;21.90;99.90
8994;DHT22;4532;50.886;4.700;2023-08-08T15:27:41;22.00;99.90
8994;DHT22;4532;50.886;4.700;2023-08-08T15:30:09;21.90;99.90
8994;DHT22;4532;50.886;4.700;2023-08-08T15:32:38;21.90;99.90
8994;DHT22;4532;50.886;4.700;2023-08-08T15:35:08;21.90;99.90
8994;DHT22;4532;50.886;4.700;2023-08-08T15:37:35;21.90;99.90
8994;DHT22;4532;50.886;4.700;2023-08-08T15:40:08;21.80;99.90
8994;DHT22;4532;50.886;4.700;2023-08-08T15:42:35;21.80;99.90
8994;DHT22;4532;50.886;4.700;2023-08-08T15:45:03;21.80;99.90
8994;DHT22;4532;50.886;4.700;2023-08-08T15:47:30;21.80;99.90
8994;DHT22;4532;50.886;4.700;2023-08-08T15:50:00;21.80;99.90
8994;DHT22;4532;50.886;4.700;2023-08-08T15:52:27;21.80;99.90
8994;DHT22;4532;50.886;4.700;2023-08-08T15:54:59;21.80;99.90
8994;DHT22;4532;50.886;4.700;2023-08-08T15:57:26;21.80;99.90
8994;DHT22;4532;50.886;4.700;2023-08-08T15:59:59;21.80;99.90
8994;DHT22;4532;50.886;4.700;2023-08-08T16:02:26;21.80;99.90
8994;DHT22;4532;50.886;4.700;2023-08-08T16:04:56;21.70;99.90
8994;DHT22;4532;50.886;4.700;2023-08-08T16:07:24;21.70;99.90
8994;DHT22;4532;50.886;4.700;2023-08-08T16:09:51;21.70;99.90
8994;DHT22;4532;50.886;4.700;2023-08-08T16:12:23;21.60;99.90
8994;DHT22;4532;50.886;4.700;2023-08-08T16:14:50;21.60;99.90
8994;DHT22;4532;50.886;4.700;2023-08-08T16:17:20;21.60;99.90
8994;DHT22;4532;50.886;4.700;2023-08-08T16:19:47;21.60;99.90
8994;DHT22;4532;50.886;4.700;2023-08-08T16:22:17;21.60;99.90